Time;durP1;ratioP1;P1;durP2;ratioP2;P2;SDS_P1;SDS_P2;PMS_P1;PMS_P2;Temp;Humidity;BMP_temperature;BMP_pressure;BME280_temperature;BME280_humidity;BME280_pressure;Samples;Min_cycle;Max_cycle;Signal;HPM_P1;HPM_P2
2021/01/26 00:01:05;;;;;;;1.37;0.80;;;;;;;6.99;84.53;97004.22;1748429;80;21121;-62
2021/01/26 00:03:32;;;;;;;1.33;1.00;;;;;;;6.97;84.61;97013.35;1773717;79;22086;-61
2021/01/26 00:05:59;;;;;;;3.00;1.07;;;;;;;6.96;84.63;97008.48;1769677;79;21198;-61
2021/01/26 00:08:26;;;;;;;3.50;1.07;;;;;;;6.97;84.65;97006.19;1775298;78;22307;-59
2021/01/26 00:13:24;;;;;;;1.40;1.30;;;;;;;6.98;84.61;97008.34;1870585;75;22764;-60
2021/01/26 00:15:52;;;;;;;1.93;1.40;;;;;;;6.89;84.64;97011.23;1838666;77;21474;-59
2021/01/26 00:18:19;;;;;;;1.47;1.10;;;;;;;6.87;84.64;97007.00;1844783;77;21650;-61
2021/01/26 00:20:47;;;;;;;2.03;1.10;;;;;;;6.81;84.70;97005.14;1837572;77;21163;-61
2021/01/26 00:23:15;;;;;;;1.60;1.10;;;;;;;6.80;84.72;97011.45;1839629;77;21143;-60
2021/01/26 00:25:42;;;;;;;1.87;1.00;;;;;;;6.80;84.79;97008.78;1837157;77;21054;-60
2021/01/26 00:28:12;;;;;;;0.83;0.83;;;;;;;6.82;84.77;97014.88;1843076;77;21041;-61
2021/01/26 00:30:41;;;;;;;1.60;0.77;;;;;;;6.82;84.79;97012.20;1840558;77;21419;-61
2021/01/26 00:33:17;;;;;;;1.17;1.07;;;;;;;6.84;84.75;97022.78;1804758;78;21065;-60
2021/01/26 00:35:46;;;;;;;4.10;1.10;;;;;;;6.84;84.78;97026.80;1775163;78;21176;-61
2021/01/26 00:38:13;;;;;;;0.43;0.40;;;;;;;6.84;84.73;97031.66;1764604;78;21701;-61
2021/01/26 00:40:41;;;;;;;0.43;0.30;;;;;;;6.80;84.46;97042.72;1773176;79;21190;-60
2021/01/26 00:43:10;;;;;;;0.70;0.30;;;;;;;6.74;84.10;97049.36;1783046;79;21368;-61
2021/01/26 00:45:37;;;;;;;0.30;0.20;;;;;;;6.67;83.74;97054.80;1751311;80;21218;-60
2021/01/26 00:48:06;;;;;;;0.10;0.10;;;;;;;6.55;83.08;97048.20;1777511;79;21142;-62
2021/01/26 00:50:34;;;;;;;0.10;0.10;;;;;;;6.36;82.06;97052.73;1782251;78;21130;-61
2021/01/26 00:53:02;;;;;;;0.10;0.10;;;;;;;6.14;81.63;97056.59;1777501;79;21510;-60
2021/01/26 00:55:38;;;;;;;0.10;0.10;;;;;;;5.96;81.44;97064.11;1780190;79;22100;-59
2021/01/26 00:58:05;;;;;;;0.20;0.10;;;;;;;5.79;80.97;97073.30;1755281;80;21129;-60
2021/01/26 01:00:37;;;;;;;0.10;0.10;;;;;;;5.64;80.49;97074.39;1754587;80;21955;-62
2021/01/26 01:03:09;;;;;;;0.40;0.10;;;;;;;5.42;79.48;97088.41;1754316;80;21130;-62
2021/01/26 01:05:36;;;;;;;0.20;0.20;;;;;;;5.12;78.39;97094.02;1756996;80;21148;-61
2021/01/26 01:08:04;;;;;;;0.20;0.20;;;;;;;4.73;78.49;97102.92;1756339;80;21436;-62
2021/01/26 01:10:32;;;;;;;0.57;0.50;;;;;;;4.48;78.87;97110.34;1783967;79;21146;-62
2021/01/26 01:13:00;;;;;;;0.30;0.20;;;;;;;4.26;78.69;97103.36;1768107;79;21311;-61
2021/01/26 01:15:27;;;;;;;0.43;0.20;;;;;;;4.07;78.50;97114.84;1751849;80;21121;-61
2021/01/26 01:17:54;;;;;;;0.20;0.10;;;;;;;3.91;78.88;97122.95;1753186;80;21087;-60
2021/01/26 01:20:23;;;;;;;0.20;0.20;;;;;;;3.80;78.88;97123.62;1754767;80;21963;-61
2021/01/26 01:22:50;;;;;;;0.30;0.20;;;;;;;3.71;79.08;97131.31;1752444;80;21652;-61
2021/01/26 01:25:18;;;;;;;0.63;0.50;;;;;;;3.69;79.22;97145.18;1755606;80;22384;-62
2021/01/26 01:27:46;;;;;;;0.83;0.50;;;;;;;3.62;78.90;97130.55;1753045;80;21244;-63
2021/01/26 01:30:18;;;;;;;1.57;0.50;;;;;;;3.51;78.99;97127.22;1755702;80;21107;-62
2021/01/26 01:32:45;;;;;;;0.50;0.30;;;;;;;3.40;79.10;97144.33;1754634;80;21655;-62
2021/01/26 01:35:13;;;;;;;0.10;0.10;;;;;;;3.31;79.10;97149.73;1751274;80;21674;-63
2021/01/26 01:37:40;;;;;;;0.10;0.10;;;;;;;3.21;79.17;97163.19;1753022;80;21211;-61
2021/01/26 01:40:10;;;;;;;0.30;0.10;;;;;;;3.13;79.32;97160.13;1754153;80;21792;-61
2021/01/26 01:42:37;;;;;;;0.20;0.20;;;;;;;3.07;79.51;97171.10;1756340;80;21123;-61
2021/01/26 01:45:06;;;;;;;0.20;0.10;;;;;;;3.04;79.59;97182.80;1754852;80;21438;-60
2021/01/26 01:47:41;;;;;;;0.23;0.20;;;;;;;2.99;79.76;97183.52;1753536;80;21172;-61
2021/01/26 01:50:12;;;;;;;;;;;;;;;2.94;79.76;97193.57;1757093;80;21198;-60
2021/01/26 01:52:39;;;;;;;0.30;0.20;;;;;;;2.88;79.75;97201.91;1752829;80;20272;-62
2021/01/26 01:55:16;;;;;;;0.40;0.20;;;;;;;2.78;79.89;97208.69;1757296;80;21418;-62
2021/01/26 01:57:54;;;;;;;0.20;0.20;;;;;;;2.69;80.03;97218.98;1753082;80;21609;-62
2021/01/26 02:00:21;;;;;;;0.10;0.10;;;;;;;2.63;80.21;97234.80;1754863;80;21182;-61
2021/01/26 02:02:55;;;;;;;0.53;0.10;;;;;;;2.59;80.35;97237.23;1754006;80;21218;-62
2021/01/26 02:05:23;;;;;;;0.17;0.10;;;;;;;2.58;80.29;97250.12;1753106;80;21210;-61
2021/01/26 02:07:52;;;;;;;0.27;0.10;;;;;;;2.52;80.31;97259.30;1749633;80;21220;-61
2021/01/26 02:10:20;;;;;;;0.30;0.20;;;;;;;2.47;80.43;97261.80;1726620;80;22926;-62
2021/01/26 02:12:47;;;;;;;0.20;0.10;;;;;;;2.41;80.58;97271.44;1746264;80;21213;-62
2021/01/26 02:15:14;;;;;;;0.30;0.13;;;;;;;2.35;80.71;97279.28;1725799;81;21590;-61
2021/01/26 02:18:02;;;;;;;0.20;0.10;;;;;;;2.35;80.82;97287.71;1725466;81;21519;-61
2021/01/26 02:21:15;;;;;;;0.33;0.20;;;;;;;2.35;81.00;97291.69;1728524;81;21219;-61
2021/01/26 02:24:18;;;;;;;0.20;0.20;;;;;;;2.34;81.03;97293.48;1725517;81;23367;-62
2021/01/26 02:27:21;;;;;;;0.30;0.20;;;;;;;2.34;81.03;97295.28;1725679;81;21585;-61
2021/01/26 02:30:17;;;;;;;0.70;0.40;;;;;;;2.30;80.92;97309.17;1727740;81;21345;-61
2021/01/26 02:33:10;;;;;;;0.37;0.27;;;;;;;2.24;80.77;97315.69;1723179;81;21553;-62
2021/01/26 02:36:01;;;;;;;0.47;0.40;;;;;;;2.19;80.84;97327.03;1730221;81;21498;-61
2021/01/26 02:38:52;;;;;;;0.70;0.50;;;;;;;2.14;80.95;97340.99;1725975;81;21870;-62
2021/01/26 02:41:29;;;;;;;0.60;0.43;;;;;;;2.13;80.87;97354.34;1726156;81;21260;-61
2021/01/26 02:44:20;;;;;;;0.73;0.50;;;;;;;2.08;80.85;97363.87;1732431;81;21156;-62
2021/01/26 02:47:10;;;;;;;1.40;0.80;;;;;;;2.06;80.98;97361.77;1728139;81;21115;-61
2021/01/26 02:50:09;;;;;;;1.73;0.80;;;;;;;2.00;80.71;97374.50;1726414;81;21241;-59
2021/01/26 02:52:50;;;;;;;1.10;0.70;;;;;;;1.94;80.78;97361.09;1724882;81;21570;-57
2021/01/26 02:55:26;;;;;;;1.00;0.70;;;;;;;1.86;80.83;97381.85;1724241;81;21210;-58
2021/01/26 02:57:59;;;;;;;0.90;0.70;;;;;;;1.82;80.97;97386.91;1730108;81;21174;-56
2021/01/26 03:00:29;;;;;;;1.77;0.80;;;;;;;1.82;81.03;97389.56;1730017;81;21130;-56
2021/01/26 03:03:10;;;;;;;1.67;0.90;;;;;;;1.80;81.08;97380.81;1707317;81;21178;-58
2021/01/26 03:05:51;;;;;;;1.13;0.80;;;;;;;1.77;80.97;97373.90;1729996;81;21662;-58
2021/01/26 03:08:23;;;;;;;1.30;0.80;;;;;;;1.75;81.00;97377.09;1726013;81;21237;-59
2021/01/26 03:11:11;;;;;;;3.57;1.10;;;;;;;1.75;81.04;97369.59;1724825;81;21142;-59
2021/01/26 03:13:39;;;;;;;2.43;1.33;;;;;;;1.77;81.11;97370.38;1727331;81;21248;-57
2021/01/26 03:16:09;;;;;;;2.00;1.20;;;;;;;1.77;80.84;97376.55;1729154;81;21130;-57
2021/01/26 03:18:44;;;;;;;1.90;1.10;;;;;;;1.76;80.92;97382.78;1725086;81;21337;-57
2021/01/26 03:21:13;;;;;;;;;;;;;;;1.76;80.74;97380.13;1719667;81;21512;-58
2021/01/26 03:23:46;;;;;;;1.60;1.37;;;;;;;1.72;80.71;97399.77;1723633;81;20297;-58
2021/01/26 03:26:21;;;;;;;2.43;1.13;;;;;;;1.68;80.67;97390.73;1723728;81;21209;-57
2021/01/26 03:28:52;;;;;;;3.97;1.20;;;;;;;1.67;80.75;97383.71;1726404;81;21540;-57
2021/01/26 03:31:22;;;;;;;1.67;1.20;;;;;;;1.66;80.61;97393.46;1726482;81;21398;-56
2021/01/26 03:33:49;;;;;;;2.50;1.57;;;;;;;1.67;80.55;97402.28;1695354;81;22262;-57
2021/01/26 03:36:17;;;;;;;1.97;1.60;;;;;;;1.65;80.55;97416.07;1698221;81;21182;-58
2021/01/26 03:38:44;;;;;;;4.07;2.20;;;;;;;1.66;80.51;97425.75;1725215;81;21715;-59
2021/01/26 03:41:12;;;;;;;3.90;1.90;;;;;;;1.66;80.50;97426.61;1724882;81;21301;-57
2021/01/26 03:43:39;;;;;;;2.60;1.40;;;;;;;1.66;80.39;97421.77;1721258;81;21865;-59
2021/01/26 03:46:36;;;;;;;4.83;2.13;;;;;;;1.68;80.33;97435.82;1722638;81;21274;-56
2021/01/26 03:49:31;;;;;;;2.73;2.00;;;;;;;1.73;80.16;97432.00;1866793;75;27212;-56
2021/01/26 03:52:27;;;;;;;3.40;2.77;;;;;;;1.70;80.12;97439.27;1840788;77;21172;-58
2021/01/26 03:55:06;;;;;;;2.97;2.63;;;;;;;1.68;80.08;97443.31;1840046;77;21458;-58
2021/01/26 03:58:23;;;;;;;3.77;2.37;;;;;;;1.65;80.09;97432.84;1847411;77;20988;-58
2021/01/26 04:00:53;;;;;;;;;;;;;;;1.65;80.11;97439.94;1819336;77;20958;-59
2021/01/26 04:03:48;;;;;;;3.00;2.40;;;;;;;1.66;80.12;97446.96;1840464;77;20154;-57
2021/01/26 04:06:39;;;;;;;5.70;2.93;;;;;;;1.64;80.00;97454.13;1843865;77;22065;-59
2021/01/26 04:09:09;;;;;;;4.77;2.53;;;;;;;1.63;80.02;97461.69;1837128;77;21370;-59
2021/01/26 04:13:08;;;;;;;3.87;2.27;;;;;;;1.60;80.15;97456.55;1870812;75;26771;-55
2021/01/26 04:15:41;;;;;;;4.87;3.37;;;;;;;1.53;80.18;97465.74;1779719;78;20993;-59
2021/01/26 04:18:11;;;;;;;4.67;3.20;;;;;;;1.50;80.02;97468.93;1779237;78;21371;-58
2021/01/26 04:20:38;;;;;;;4.80;2.60;;;;;;;1.51;80.01;97473.77;1812148;78;21002;-59
2021/01/26 04:23:06;;;;;;;4.87;2.90;;;;;;;1.52;80.07;97470.19;1781982;78;21044;-58
2021/01/26 04:25:39;;;;;;;4.20;2.03;;;;;;;1.55;79.98;97477.11;1780758;79;21525;-58
2021/01/26 04:28:11;;;;;;;5.80;2.87;;;;;;;1.57;79.82;97488.51;1787769;79;21533;-58
2021/01/26 04:30:39;;;;;;;4.47;3.20;;;;;;;1.58;79.33;97488.91;1775713;80;21201;-58
2021/01/26 04:33:10;;;;;;;6.07;2.83;;;;;;;1.56;79.29;97489.44;1792538;79;21301;-61
2021/01/26 04:35:38;;;;;;;3.50;3.17;;;;;;;1.53;79.07;97490.47;1790171;79;21186;-59
2021/01/26 04:38:05;;;;;;;4.13;2.17;;;;;;;1.52;78.77;97495.38;1792793;79;21192;-57
2021/01/26 04:40:33;;;;;;;4.00;3.03;;;;;;;1.52;78.65;97511.28;1792487;79;21111;-58
2021/01/26 04:43:15;;;;;;;2.67;2.47;;;;;;;1.51;78.29;97505.12;1764953;79;22555;-60
2021/01/26 04:46:22;;;;;;;3.13;2.80;;;;;;;1.53;78.34;97520.09;1805399;77;21491;-58
2021/01/26 04:51:50;;;;;;;5.90;3.70;;;;;;;1.55;78.15;97519.53;1747097;78;26777;-58
2021/01/26 04:54:49;;;;;;;3.57;2.50;;;;;;;1.53;78.21;97522.75;1727383;82;21286;-56
2021/01/26 04:57:51;;;;;;;3.50;2.17;;;;;;;1.55;78.02;97534.98;1722800;82;21052;-57
2021/01/26 05:00:41;;;;;;;3.10;2.90;;;;;;;1.56;77.70;97538.48;1722122;80;21120;-60
2021/01/26 05:03:43;;;;;;;5.03;2.17;;;;;;;1.55;77.62;97548.23;1656611;80;21755;-60
2021/01/26 05:06:14;;;;;;;3.23;2.30;;;;;;;1.53;77.30;97536.37;1723652;80;21183;-58
2021/01/26 05:10:45;;;;;;;3.87;2.57;;;;;;;1.61;77.24;97542.66;1749763;78;26868;-61
2021/01/26 05:13:26;;;;;;;3.47;2.07;;;;;;;1.58;77.22;97546.77;1723646;82;21435;-61
2021/01/26 05:16:04;;;;;;;6.07;2.17;;;;;;;1.58;76.91;97555.19;1723282;80;21204;-61
2021/01/26 05:18:40;;;;;;;3.33;2.17;;;;;;;1.58;76.94;97543.26;1724545;82;21546;-61
2021/01/26 05:21:11;;;;;;;3.00;2.07;;;;;;;1.60;76.75;97562.16;1724595;80;21325;-60
2021/01/26 05:23:42;;;;;;;3.33;1.97;;;;;;;1.61;76.76;97565.20;1696132;82;20989;-61
2021/01/26 05:26:12;;;;;;;3.23;2.23;;;;;;;1.61;76.61;97576.27;1727385;81;21013;-61
2021/01/26 05:28:45;;;;;;;3.70;1.50;;;;;;;1.61;76.70;97570.97;1726377;81;21096;-61
2021/01/26 05:31:26;;;;;;;2.73;1.77;;;;;;;1.62;76.46;97583.27;1723254;82;21068;-60
2021/01/26 05:33:44;;;;;;;2.10;1.33;;;;;;;1.62;76.32;97581.48;1718742;81;21935;-60
2021/01/26 05:36:11;;;;;;;3.23;1.70;;;;;;;1.63;76.20;97584.53;1701175;82;21135;-62
2021/01/26 05:38:38;;;;;;;1.90;1.50;;;;;;;1.67;76.05;97587.45;1726778;82;21884;-60
2021/01/26 05:41:08;;;;;;;3.97;2.40;;;;;;;1.67;75.93;97586.13;1723311;81;21654;-61
2021/01/26 05:43:36;;;;;;;3.00;2.37;;;;;;;1.68;75.65;97607.73;1709619;81;21194;-64
2021/01/26 05:46:08;;;;;;;2.43;1.37;;;;;;;1.67;75.44;97582.61;1710471;81;21615;-62
2021/01/26 05:48:49;;;;;;;3.77;2.17;;;;;;;1.66;75.43;97596.80;1715112;81;21253;-63
2021/01/26 05:51:24;;;;;;;1.87;1.10;;;;;;;1.68;75.38;97612.17;1709150;81;21202;-62
2021/01/26 05:53:58;;;;;;;2.10;1.30;;;;;;;1.71;75.27;97608.89;1712691;82;21198;-60
2021/01/26 05:56:26;;;;;;;2.53;1.10;;;;;;;1.74;75.14;97614.06;1709159;82;21360;-61
2021/01/26 05:58:53;;;;;;;1.13;1.03;;;;;;;1.78;75.17;97616.13;1682247;82;21238;-62
2021/01/26 06:01:32;;;;;;;3.27;1.13;;;;;;;1.80;75.06;97617.75;1707604;82;21199;-61
2021/01/26 06:04:15;;;;;;;2.33;1.47;;;;;;;1.80;74.96;97620.41;1713868;82;21040;-61
2021/01/26 06:06:59;;;;;;;2.12;1.20;;;;;;;1.81;74.87;97623.45;1711873;82;22137;-63
2021/01/26 06:09:37;;;;;;;1.57;1.00;;;;;;;1.84;74.79;97630.42;1703561;82;21231;-61
2021/01/26 06:12:16;;;;;;;2.23;1.43;;;;;;;1.85;74.62;97634.80;1691343;83;21630;-63
2021/01/26 06:17:34;;;;;;;2.50;1.70;;;;;;;1.89;74.11;97632.38;1871490;75;26937;-56
2021/01/26 06:20:20;;;;;;;1.60;1.10;;;;;;;1.84;74.28;97647.20;1841996;77;21222;-57
2021/01/26 06:22:51;;;;;;;;;;;;;;;1.84;74.25;97658.27;1799494;78;22064;-58
2021/01/26 06:25:32;;;;;;;2.10;1.00;;;;;;;1.83;74.02;97649.45;1803042;78;20193;-58
2021/01/26 06:28:25;;;;;;;2.00;0.93;;;;;;;1.82;74.07;97664.11;1787527;78;21962;-55
2021/01/26 06:31:23;;;;;;;1.97;0.93;;;;;;;1.81;74.06;97668.55;1753479;78;21686;-56
2021/01/26 06:34:37;;;;;;;4.07;1.10;;;;;;;1.81;74.05;97678.30;1806903;78;21163;-56
2021/01/26 06:37:18;;;;;;;2.00;1.00;;;;;;;1.82;74.02;97690.63;1815971;77;21734;-60
2021/01/26 06:40:09;;;;;;;1.50;0.90;;;;;;;1.84;73.90;97695.41;1743632;79;21503;-57
2021/01/26 06:42:48;;;;;;;1.83;1.27;;;;;;;1.84;73.91;97698.06;1790979;78;21039;-59
2021/01/26 06:45:29;;;;;;;2.07;1.20;;;;;;;1.85;74.09;97702.44;1790431;78;21470;-56
2021/01/26 06:48:11;;;;;;;1.53;1.10;;;;;;;1.85;73.98;97710.40;1785293;79;21185;-58
2021/01/26 06:50:53;;;;;;;2.93;1.00;;;;;;;1.86;73.98;97718.76;1787244;79;21389;-56
2021/01/26 06:53:37;;;;;;;2.10;0.90;;;;;;;1.89;74.04;97715.48;1784446;78;21194;-59
2021/01/26 06:56:28;;;;;;;1.55;0.85;;;;;;;1.92;74.07;97721.59;1786989;79;21178;-56
2021/01/26 06:59:47;;;;;;;1.90;1.20;;;;;;;1.94;74.24;97736.98;1785223;79;21158;-59
2021/01/26 07:02:44;;;;;;;3.70;1.07;;;;;;;1.96;74.15;97732.47;1711879;81;21203;-59
2021/01/26 07:05:43;;;;;;;1.83;0.90;;;;;;;1.97;74.19;97746.97;1699045;82;21335;-57
2021/01/26 07:08:37;;;;;;;3.30;1.10;;;;;;;2.01;74.05;97750.35;1717795;81;21125;-58
2021/01/26 07:11:36;;;;;;;2.60;1.17;;;;;;;2.00;73.99;97753.47;1701213;82;22141;-58
2021/01/26 07:14:54;;;;;;;1.57;0.90;;;;;;;2.00;73.78;97748.16;1720625;81;21533;-59
2021/01/26 07:17:30;;;;;;;1.50;0.90;;;;;;;1.99;73.75;97768.99;1712193;81;21231;-58
2021/01/26 07:20:12;;;;;;;1.43;0.97;;;;;;;1.99;73.55;97768.99;1696754;82;21238;-59
2021/01/26 07:22:54;;;;;;;1.67;0.80;;;;;;;1.99;73.52;97782.26;1695945;82;21769;-59
2021/01/26 07:25:36;;;;;;;1.00;0.60;;;;;;;1.99;73.29;97776.95;1706190;82;21194;-56
2021/01/26 07:28:49;;;;;;;1.00;0.60;;;;;;;2.00;73.21;97773.38;1713075;81;21473;-55
2021/01/26 07:31:30;;;;;;;1.40;0.80;;;;;;;2.01;72.92;97752.55;1712204;81;21176;-59
2021/01/26 07:34:23;;;;;;;1.10;0.73;;;;;;;2.03;72.90;97779.02;1695684;82;21485;-58
2021/01/26 07:37:15;;;;;;;0.83;0.60;;;;;;;2.01;72.72;97783.52;1720942;81;21176;-59
2021/01/26 07:40:09;;;;;;;1.57;0.90;;;;;;;2.02;72.84;97791.42;1719520;81;21181;-58
2021/01/26 07:42:47;;;;;;;1.77;0.80;;;;;;;2.05;72.60;97798.36;1719052;82;21108;-58
2021/01/26 07:45:29;;;;;;;1.13;0.67;;;;;;;2.10;72.59;97801.22;1817631;76;26804;-58
2021/01/26 07:48:13;;;;;;;1.03;0.77;;;;;;;2.08;72.54;97820.33;1794823;77;21364;-56
2021/01/26 07:50:44;;;;;;;1.00;0.80;;;;;;;2.09;72.30;97802.61;1761053;79;21490;-58
2021/01/26 07:53:29;;;;;;;1.27;0.73;;;;;;;2.09;72.13;97796.84;1789098;77;21581;-56
2021/01/26 07:56:08;;;;;;;2.58;0.80;;;;;;;2.08;72.26;97816.34;1795916;77;21123;-57
2021/01/26 07:58:35;;;;;;;1.83;0.63;;;;;;;2.09;72.26;97823.38;1793473;77;20969;-57
2021/01/26 08:01:02;;;;;;;1.00;0.57;;;;;;;2.13;72.36;97819.64;1790805;77;21470;-56
2021/01/26 08:03:30;;;;;;;0.80;0.60;;;;;;;2.16;72.13;97826.16;1786515;77;22230;-58
2021/01/26 08:05:58;;;;;;;0.93;0.53;;;;;;;2.18;72.17;97830.94;1791084;77;21438;-57
2021/01/26 08:08:36;;;;;;;1.20;0.70;;;;;;;2.21;72.00;97841.39;1792792;77;21014;-55
2021/01/26 08:11:21;;;;;;;1.00;0.60;;;;;;;2.20;71.91;97840.16;1792133;77;21087;-55
2021/01/26 08:13:56;;;;;;;1.30;0.60;;;;;;;2.21;71.73;97845.38;1763330;77;21123;-55
2021/01/26 08:16:34;;;;;;;0.70;0.57;;;;;;;2.21;71.90;97845.88;1786351;77;21433;-56
2021/01/26 08:19:05;;;;;;;1.33;0.60;;;;;;;2.21;71.90;97849.35;1790938;77;21449;-56
2021/01/26 08:21:39;;;;;;;0.80;0.60;;;;;;;2.21;71.70;97845.88;1758134;79;21123;-55
2021/01/26 08:24:33;;;;;;;0.95;0.60;;;;;;;2.20;71.70;97864.05;1791268;77;21114;-56
2021/01/26 08:27:32;;;;;;;0.87;0.50;;;;;;;2.18;71.55;97866.77;1791205;77;21171;-58
2021/01/26 08:30:01;;;;;;;0.67;0.50;;;;;;;2.21;71.40;97869.76;1785824;77;21436;-57
2021/01/26 08:32:33;;;;;;;0.90;0.50;;;;;;;2.21;71.21;97871.92;1793866;77;21142;-56
2021/01/26 08:35:14;;;;;;;0.60;0.40;;;;;;;2.21;71.06;97885.19;1792292;77;21125;-57
2021/01/26 08:37:46;;;;;;;0.77;0.50;;;;;;;2.21;70.79;97875.90;1792065;77;21534;-58
2021/01/26 08:40:32;;;;;;;0.70;0.40;;;;;;;2.19;70.43;97896.37;1788990;77;21081;-54
2021/01/26 08:43:02;;;;;;;0.90;0.47;;;;;;;2.17;70.22;97902.20;1820682;76;22586;-58
2021/01/26 08:45:36;;;;;;;0.70;0.47;;;;;;;2.15;69.82;97905.37;1801619;77;21210;-57
2021/01/26 08:48:12;;;;;;;0.80;0.40;;;;;;;2.13;69.87;97912.53;1798372;78;21589;-58
2021/01/26 08:50:46;;;;;;;0.70;0.50;;;;;;;2.14;69.70;97924.02;1800333;78;21126;-59
2021/01/26 08:53:32;;;;;;;0.80;0.50;;;;;;;2.14;69.95;97926.67;1802942;78;21180;-55
2021/01/26 08:56:14;;;;;;;0.70;0.50;;;;;;;2.15;69.58;97927.08;1798286;77;21379;-59
2021/01/26 08:58:46;;;;;;;0.60;0.40;;;;;;;2.15;69.70;97933.25;1796136;78;21174;-55
2021/01/26 09:01:37;;;;;;;0.70;0.40;;;;;;;2.15;69.63;97919.98;1802129;78;21163;-56
2021/01/26 09:04:17;;;;;;;0.63;0.40;;;;;;;2.14;69.67;97928.86;1802504;78;21170;-56
2021/01/26 09:06:47;;;;;;;0.80;0.40;;;;;;;2.15;69.57;97941.21;1799809;77;21572;-60
2021/01/26 09:09:35;;;;;;;1.47;0.50;;;;;;;2.14;69.38;97943.47;1801192;78;22248;-58
2021/01/26 09:12:07;;;;;;;0.60;0.40;;;;;;;2.15;69.20;97945.19;1798376;78;21175;-59
2021/01/26 09:14:50;;;;;;;0.90;0.40;;;;;;;2.14;69.25;97968.67;1775773;78;21155;-55
2021/01/26 09:17:26;;;;;;;0.80;0.43;;;;;;;2.15;69.17;97967.75;1799828;77;21186;-57
2021/01/26 09:20:00;;;;;;;1.00;0.50;;;;;;;2.15;69.31;97971.73;1800247;78;21198;-58
2021/01/26 09:22:29;;;;;;;;;;;;;;;2.15;69.36;97988.98;1790576;77;23530;-55
2021/01/26 09:25:24;;;;;;;0.63;0.30;;;;;;;2.16;69.40;97997.81;1798813;78;20303;-59
2021/01/26 09:28:06;;;;;;;0.93;0.50;;;;;;;2.15;69.27;97988.13;1797585;78;21194;-57
2021/01/26 09:30:36;;;;;;;0.90;0.60;;;;;;;2.13;69.05;98002.78;1802326;78;21455;-58
2021/01/26 09:33:22;;;;;;;0.60;0.50;;;;;;;2.12;68.96;98006.85;1800601;78;21453;-56
2021/01/26 09:35:54;;;;;;;0.60;0.40;;;;;;;2.07;68.97;98007.03;1798852;78;22231;-60
2021/01/26 09:38:29;;;;;;;0.60;0.50;;;;;;;2.03;69.17;98005.45;1802526;77;21141;-60
2021/01/26 09:41:06;;;;;;;0.78;0.53;;;;;;;2.03;69.27;98001.47;1796328;78;21192;-58
2021/01/26 09:43:36;;;;;;;1.00;0.50;;;;;;;2.03;69.45;98020.05;1799125;78;21162;-57
2021/01/26 09:46:14;;;;;;;0.83;0.40;;;;;;;2.05;69.57;98018.16;1817539;77;21182;-57
2021/01/26 09:48:44;;;;;;;1.97;0.40;;;;;;;2.07;69.70;98025.61;1819338;76;21326;-57
2021/01/26 09:51:20;;;;;;;2.50;0.50;;;;;;;2.08;69.59;98008.76;1761096;79;21185;-54
2021/01/26 09:53:51;;;;;;;0.60;0.50;;;;;;;2.09;69.70;98011.81;1770182;79;21213;-59
2021/01/26 09:56:20;;;;;;;3.60;1.00;;;;;;;2.08;69.58;98015.39;1776265;79;21166;-58
2021/01/26 09:58:52;;;;;;;1.40;0.40;;;;;;;2.08;69.67;98026.02;1750309;80;21191;-59
2021/01/26 10:01:20;;;;;;;1.20;0.50;;;;;;;2.09;69.63;98019.78;1770355;79;21652;-58
2021/01/26 10:03:52;;;;;;;0.90;0.50;;;;;;;2.07;69.58;98037.55;1746924;79;21511;-58
2021/01/26 10:06:19;;;;;;;0.80;0.50;;;;;;;2.09;69.38;98032.19;1769345;79;21190;-59
2021/01/26 10:08:46;;;;;;;0.73;0.50;;;;;;;2.06;69.68;98034.49;1770268;79;21189;-60
2021/01/26 10:11:20;;;;;;;0.70;0.50;;;;;;;2.07;69.67;98031.38;1705548;80;21216;-58
2021/01/26 10:13:47;;;;;;;0.90;0.40;;;;;;;2.08;69.53;98030.45;1770973;79;21864;-60
2021/01/26 10:16:31;;;;;;;0.73;0.57;;;;;;;2.09;69.73;98047.65;1754067;81;21208;-60
2021/01/26 10:18:59;;;;;;;0.80;0.50;;;;;;;2.10;69.55;98036.11;1774144;79;20972;-58
2021/01/26 10:21:30;;;;;;;0.70;0.40;;;;;;;2.11;69.53;98044.47;1748834;79;21266;-58
2021/01/26 10:24:01;;;;;;;0.60;0.40;;;;;;;2.13;69.55;98042.59;1773841;79;21193;-58
2021/01/26 10:26:32;;;;;;;0.60;0.50;;;;;;;2.14;69.53;98046.98;1758346;81;21913;-59
2021/01/26 10:29:12;;;;;;;0.70;0.40;;;;;;;2.15;69.52;98058.00;1772149;79;21113;-60
2021/01/26 10:32:02;;;;;;;0.53;0.50;;;;;;;2.15;69.50;98056.67;1751448;79;21099;-56
2021/01/26 10:34:48;;;;;;;0.93;0.50;;;;;;;2.15;69.42;98059.33;1771981;79;22148;-60
2021/01/26 10:37:28;;;;;;;1.33;0.60;;;;;;;2.18;69.39;98051.71;1745451;81;21199;-58
2021/01/26 10:40:32;;;;;;;1.17;0.60;;;;;;;2.18;69.44;98069.83;1772840;79;21371;-56
2021/01/26 10:43:19;;;;;;;0.90;0.50;;;;;;;2.18;68.90;98060.55;1748122;79;21127;-56
2021/01/26 10:45:50;;;;;;;0.67;0.50;;;;;;;2.18;69.13;98084.89;1763668;79;21142;-58
2021/01/26 10:48:24;;;;;;;0.90;0.50;;;;;;;2.18;68.86;98080.45;1758607;80;21171;-58
2021/01/26 10:50:52;;;;;;;;;;;;;;;2.18;68.92;98085.76;1776650;78;21306;-57
2021/01/26 10:53:40;;;;;;;1.37;0.60;;;;;;;2.19;68.98;98087.48;1751848;80;21306;-57
2021/01/26 10:56:08;;;;;;;0.60;0.50;;;;;;;2.19;69.16;98081.31;1755439;80;21158;-55
2021/01/26 10:58:35;;;;;;;1.00;0.47;;;;;;;2.21;69.10;98091.41;1743130;81;21115;-59
2021/01/26 11:01:03;;;;;;;1.10;0.50;;;;;;;2.22;68.88;98095.30;1749133;80;21461;-58
2021/01/26 11:03:30;;;;;;;0.77;0.50;;;;;;;2.22;68.90;98099.29;1747729;80;21135;-59
2021/01/26 11:05:58;;;;;;;0.97;0.50;;;;;;;2.25;68.88;98095.66;1752714;80;21602;-58
2021/01/26 11:08:25;;;;;;;0.73;0.50;;;;;;;2.28;68.97;98092.42;1752809;80;21136;-59
2021/01/26 11:10:53;;;;;;;0.80;0.50;;;;;;;2.32;68.52;98114.84;1753806;80;21649;-59
2021/01/26 11:13:21;;;;;;;0.70;0.50;;;;;;;2.31;68.57;98111.78;1747427;80;21158;-56
2021/01/26 11:15:48;;;;;;;1.27;0.57;;;;;;;2.31;68.78;98116.63;1746439;81;21112;-56
2021/01/26 11:18:15;;;;;;;0.60;0.40;;;;;;;2.32;68.62;98118.36;1750632;80;21582;-58
2021/01/26 11:20:43;;;;;;;0.73;0.50;;;;;;;2.32;68.44;98118.83;1773936;78;21099;-60
2021/01/26 11:23:10;;;;;;;2.53;0.53;;;;;;;2.33;68.65;98128.06;1743602;81;21139;-59
2021/01/26 11:25:38;;;;;;;0.90;0.50;;;;;;;2.32;68.62;98131.64;1741034;80;21134;-57
2021/01/26 11:28:05;;;;;;;0.67;0.50;;;;;;;2.34;68.45;98139.55;1753027;80;21134;-57
2021/01/26 11:30:33;;;;;;;0.83;0.50;;;;;;;2.32;68.49;98141.39;1777015;78;21505;-58
2021/01/26 11:33:01;;;;;;;1.47;0.50;;;;;;;2.32;68.49;98142.27;1749679;80;21226;-59
2021/01/26 11:35:29;;;;;;;0.70;0.40;;;;;;;2.31;68.17;98144.97;1742566;81;21201;-58
2021/01/26 11:37:56;;;;;;;0.80;0.40;;;;;;;2.30;68.05;98134.81;1756696;80;21125;-59
2021/01/26 11:40:24;;;;;;;0.50;0.40;;;;;;;2.30;68.21;98156.55;1759606;80;21095;-58
2021/01/26 11:42:51;;;;;;;1.90;0.50;;;;;;;2.31;68.22;98163.56;1760767;80;22011;-59
2021/01/26 11:45:23;;;;;;;2.20;0.50;;;;;;;2.32;68.32;98150.69;1762016;79;21185;-55
2021/01/26 11:47:50;;;;;;;0.93;0.50;;;;;;;2.34;68.34;98164.31;1764296;79;21178;-59
2021/01/26 11:50:18;;;;;;;1.40;0.50;;;;;;;2.37;68.49;98185.91;1766970;79;21206;-59
2021/01/26 11:52:46;;;;;;;2.20;0.57;;;;;;;2.35;67.85;98158.54;1768256;79;21611;-59
2021/01/26 11:55:17;;;;;;;0.70;0.47;;;;;;;2.35;67.95;98167.38;1772598;79;21735;-57
2021/01/26 11:57:47;;;;;;;0.60;0.33;;;;;;;2.35;67.82;98166.05;1769147;79;21550;-58
2021/01/26 12:00:22;;;;;;;0.77;0.40;;;;;;;2.36;67.82;98168.23;1770196;79;21647;-58
2021/01/26 12:02:49;;;;;;;0.50;0.40;;;;;;;2.36;67.69;98178.40;1768146;79;21206;-59
2021/01/26 12:05:19;;;;;;;0.60;0.40;;;;;;;2.34;67.73;98180.70;1770460;79;21099;-58
2021/01/26 12:07:46;;;;;;;0.67;0.50;;;;;;;2.35;67.98;98178.45;1766988;79;21589;-59
2021/01/26 12:10:14;;;;;;;0.80;0.50;;;;;;;2.36;67.70;98178.40;1770899;79;21103;-57
2021/01/26 12:12:41;;;;;;;0.73;0.50;;;;;;;2.35;67.87;98185.09;1766053;80;21159;-57
2021/01/26 12:15:11;;;;;;;0.60;0.40;;;;;;;2.35;67.99;98189.94;1764639;80;21202;-57
2021/01/26 12:17:38;;;;;;;4.70;0.80;;;;;;;2.37;67.83;98194.73;1764537;79;21551;-54
2021/01/26 12:20:08;;;;;;;1.40;0.50;;;;;;;2.39;67.80;98199.50;1772375;80;21276;-57
2021/01/26 12:22:35;;;;;;;0.50;0.40;;;;;;;2.41;67.77;98205.62;1762119;79;21496;-59
2021/01/26 12:25:04;;;;;;;0.70;0.40;;;;;;;2.42;67.82;98212.66;1765597;78;21216;-57
2021/01/26 12:27:32;;;;;;;0.80;0.50;;;;;;;2.43;67.90;98209.55;1764890;79;21119;-59
2021/01/26 12:30:00;;;;;;;0.93;0.40;;;;;;;2.44;67.74;98209.49;1766578;78;21182;-55
2021/01/26 12:32:27;;;;;;;0.87;0.50;;;;;;;2.46;67.60;98214.28;1765015;79;21250;-59
2021/01/26 12:34:55;;;;;;;0.70;0.50;;;;;;;2.48;67.33;98217.72;1763668;79;21936;-59
2021/01/26 12:37:22;;;;;;;0.60;0.50;;;;;;;2.48;67.36;98219.05;1761921;79;21206;-56